Latest Coastal Weather Observations for Flinders Island Airport

IDT60701

Issued at 10:55 am EST Tuesday 16 September 2014 (issued every 10 minutes, with the page automatically refreshed every 10 minutes)

About coastal observations | Map of coastal stations | Coastal observations for TAS | Marine services | Other Formats
Station Details ID: 099005 Name: FLINDERS ISLAND AIRPORT Lat: -40.09 Lon: 148.00 Height: 9.0 m
Data from the previous 72 hours. | See also: Recent months at Flinders Island Airport
Date/Time
EST
Temp

°C
Wind Pressure Rain
since 9am
mm
Weather Cloud Vis
km
Sea
Height
m
Swell
Dir
 
Speed
knots
Gust
knots
hPa Trend Height
m
Period
s
Dir
16/10:30am 12.3 E 9 12 1010.5 - 0.2 - Partly cloudy 10 - - - -
16/10:00am 12.4 E 9 14 1010.7 - 0.0 - Partly cloudy 10 - - - -
16/09:45am 12.2 E 11 16 1010.8 - 0.0 - Partly cloudy 10 - - - -
16/09:30am 12.2 E 11 16 1010.9 - 0.0 - Partly cloudy 10 - - - -
16/09:00am 12.0 E 10 15 1011.3 - 2.0 Recent precip. Partly cloudy 10 - - - -
16/08:54am 11.9 ENE 9 12 1011.3 - 2.0 - Partly cloudy 10 - - - -
16/08:30am 11.9 ENE 11 16 1011.4 - 2.0 - Partly cloudy 10 - - - -
16/08:20am 11.8 ENE 10 16 1011.5 - 2.0 - Partly cloudy 10 - - - -
16/08:00am 11.7 E 6 10 1011.6 - 1.8 - Partly cloudy 10 - - - -
16/07:30am 11.5 E 6 8 1011.8 - 1.8 - Partly cloudy 10 - - - -
16/07:00am 11.2 E 9 12 1011.5 - 1.8 - Partly cloudy 10 - - - -
16/06:30am 10.9 E 8 10 1011.7 - 1.8 - Partly cloudy 10 - - - -
16/06:00am 10.7 E 8 12 1011.7 - 1.8 - Partly cloudy 10 - - - -
16/05:30am 10.4 E 10 15 1011.6 - 1.8 - Partly cloudy 10 - - - -
16/05:24am 10.4 E 10 14 1011.6 - 1.8 - Partly cloudy 10 - - - -
16/05:00am 10.3 E 8 11 1011.8 - 1.8 - Partly cloudy 10 - - - -
16/04:30am 10.4 ENE 7 10 1012.1 - 1.0 - Partly cloudy 9 - - - -
16/04:00am 10.8 E 7 10 1012.1 - 0.2 - Partly cloudy 9 - - - -
16/03:30am 11.2 E 8 15 1012.2 - 0.0 - Partly cloudy 10 - - - -
16/03:16am 11.2 ENE 10 14 1012.1 - 0.0 - Partly cloudy 10 - - - -
16/03:00am 11.5 E 9 15 1012.2 - 0.0 - - 10 - - - -
16/02:30am 11.3 E 9 11 1012.3 - 0.0 - - 10 - - - -
16/02:00am 11.1 E 9 11 1012.5 - 0.0 - Partly cloudy 10 - - - -
16/01:30am 11.2 ENE 9 15 1013.0 - 0.0 - - 10 - - - -
16/01:00am 11.1 ENE 10 13 1013.5 - 0.0 - Partly cloudy 10 - - - -
16/12:30am 11.0 ENE 10 14 1014.0 - 0.0 - Partly cloudy 10 - - - -
16/12:00am 10.9 ENE 8 12 1014.4 - 0.0 - Mostly clear 10 - - - -
 
Date/Time
EST
Temp

°C
Wind Pressure Rain
since 9am
mm
Weather Cloud Vis
km
Sea
Height
m
Swell
Dir
 
Speed
knots
Gust
knots
hPa Trend Height
m
Period
s
Dir
15/11:30pm 11.1 ENE 10 14 1014.8 - 0.0 - - 10 - - - -
15/11:00pm 11.1 ENE 8 10 1015.3 - 0.0 - Partly cloudy 10 - - - -
15/10:30pm 11.1 NE 9 10 1015.8 - 0.0 - Partly cloudy 10 - - - -
15/10:00pm 10.9 NE 8 9 1016.0 - 0.0 - - 10 - - - -
15/09:30pm 10.7 ENE 6 7 1016.4 - 0.0 - - 10 - - - -
15/09:00pm 10.3 E 5 6 1016.5 - 0.0 - - 10 - - - -
15/08:30pm 10.5 ENE 7 8 1016.5 - 0.0 - - 10 - - - -
15/08:00pm 10.7 E 6 9 1016.6 - 0.0 - - 10 - - - -
15/07:30pm 10.6 E 7 9 1016.6 - 0.0 - Partly cloudy 10 - - - -
15/07:00pm 10.6 ENE 6 8 1016.3 - 0.0 - - 10 - - - -
15/06:30pm 10.6 E 6 8 1016.0 - 0.0 - - 10 - - - -
15/06:00pm 10.7 E 6 8 1016.0 - 0.0 - - 10 - - - -
15/05:30pm 11.2 E 7 10 1015.8 - 0.0 - - 10 - - - -
15/05:00pm 11.6 E 9 13 1015.8 - 0.0 - - 10 - - - -
15/04:30pm 12.0 E 9 13 1015.5 - 0.0 - - 10 - - - -
15/04:00pm 12.3 E 11 16 1015.6 - 0.0 - - 10 - - - -
15/03:30pm 12.5 E 10 14 1015.7 - 0.0 - - 10 - - - -
15/03:00pm 13.1 E 10 15 1015.7 - 0.0 - - 10 - - - -
15/02:30pm 13.6 ENE 11 15 1015.9 - 0.0 - - 10 - - - -
15/02:00pm 14.1 E 11 16 1016.1 - 0.0 - - 10 - - - -
15/01:30pm 13.7 E 11 16 1016.3 - 0.0 - - 10 - - - -
15/01:00pm 14.7 ENE 11 16 1016.5 - 0.0 - - 10 - - - -
15/12:30pm 14.4 E 11 15 1016.8 - 0.0 - - 10 - - - -
15/12:00pm 14.2 E 12 17 1017.0 - 0.0 - - 10 - - - -
15/11:30am 14.2 E 13 17 1017.3 - 0.0 - - 10 - - - -
15/11:00am 13.2 ENE 13 18 1017.6 - 0.0 - - 10 - - - -
15/10:30am 13.9 E 12 17 1018.0 - 0.0 - - 10 - - - -
15/10:00am 13.4 E 10 15 1018.0 - 0.0 - - 10 - - - -
15/09:30am 13.0 E 12 18 1018.1 - 0.0 - - 10 - - - -
15/09:00am 12.5 E 12 17 1018.1 - 0.0 - - 10 - - - -
15/08:30am 11.9 E 10 18 1018.1 - 0.0 - - 10 - - - -
15/08:00am 11.4 E 10 16 1018.2 - 0.0 - - 10 - - - -
15/07:30am 10.5 E 9 14 1018.0 - 0.0 - - 10 - - - -
15/07:00am 9.5 E 11 17 1017.7 - 0.0 - - 10 - - - -
15/06:30am 9.0 E 9 15 1017.4 - 0.0 - - 10 - - - -
15/06:00am 9.2 E 10 15 1017.1 - 0.0 - - 10 - - - -
15/05:30am 9.2 E 10 17 1016.9 - 0.0 - - 10 - - - -
15/05:00am 9.3 E 9 13 1017.0 - 0.0 - - 10 - - - -
15/04:30am 9.4 E 10 15 1016.9 - 0.0 - - 10 - - - -
15/04:00am 9.3 E 10 14 1016.9 - 0.0 - - 10 - - - -
15/03:30am 8.5 ENE 7 10 1017.0 - 0.0 - - 10 - - - -
15/03:00am 8.6 ENE 6 9 1017.1 - 0.0 - - 10 - - - -
15/02:30am 8.0 ENE 6 7 1017.2 - 0.0 - - 10 - - - -
15/02:00am 5.1 ENE 6 7 1017.5 - 0.0 - - 10 - - - -
15/01:30am 4.5 NE 5 6 1017.6 - 0.0 - - 10 - - - -
15/01:00am 6.3 ENE 7 9 1017.7 - 0.0 - - 10 - - - -
15/12:30am 5.3 NE 7 9 1017.5 - 0.0 - - - - - - -
15/12:00am 4.6 N 4 6 1017.5 - 0.0 - - 10 - - - -
 
Date/Time
EST
Temp

°C
Wind Pressure Rain
since 9am
mm
Weather Cloud Vis
km
Sea
Height
m
Swell
Dir
 
Speed
knots
Gust
knots
hPa Trend Height
m
Period
s
Dir
14/11:30pm 5.0 NE 5 8 1017.8 - 0.0 - - 10 - - - -
14/11:00pm 6.8 NE 6 8 1017.8 - 0.0 - - 10 - - - -
14/10:00pm 8.1 W 10 14 1018.4 - 0.0 - - 10 - - - -
14/09:30pm 9.2 N 3 6 1018.3 - 0.0 - - 10 - - - -
14/09:00pm 9.4 NNW 5 8 1018.2 - 0.0 - - 10 - - - -
14/08:30pm 11.9 W 14 18 1017.7 - 0.0 - - 10 - - - -
14/08:00pm 12.1 W 16 20 1017.3 - 0.0 - - 10 - - - -
14/07:30pm 12.1 W 17 20 1017.1 - 0.0 - - 10 - - - -
14/07:00pm 12.2 W 16 19 1017.0 - 0.0 - - 10 - - - -
14/06:30pm 12.3 W 18 22 1016.7 - 0.0 - - 10 - - - -
14/06:00pm 12.5 W 20 24 1016.5 - 0.0 - - 10 - - - -
14/05:30pm 12.9 W 20 26 1016.4 - 0.0 - - 10 - - - -
14/05:00pm 13.3 W 21 26 1016.2 - 0.0 - - 10 - - - -
14/04:30pm 13.7 W 20 24 1016.1 - 0.0 - - 10 - - - -
14/04:00pm 14.0 W 18 22 1016.1 - 0.0 - - 10 - - - -
14/03:30pm 14.2 W 20 24 1016.2 - 0.0 - Partly cloudy 10 - - - -
14/03:00pm 14.7 W 22 28 1016.4 - 0.0 - - 10 - - - -
14/02:30pm 14.7 W 20 25 1016.3 - 0.0 - - 10 - - - -
14/02:00pm 14.7 W 20 24 1016.3 - 0.0 - Partly cloudy 10 - - - -
14/01:30pm 14.8 W 19 24 1016.5 - 0.0 - Partly cloudy 10 - - - -
14/01:00pm 15.2 W 20 26 1016.7 - 0.0 - - 10 - - - -
14/12:30pm 15.1 W 21 27 1017.1 - 0.0 - Partly cloudy 10 - - - -
14/12:22pm 15.0 W 22 28 1017.2 - 0.0 - Partly cloudy 10 - - - -
14/12:00pm 14.5 W 21 26 1017.4 - 0.0 - Cloudy 10 - - - -
14/11:30am 14.3 W 20 26 1017.6 - 0.0 - Partly cloudy 10 - - - -
14/11:02am 14.2 W 19 23 1017.8 - 0.0 - Partly cloudy 10 - - - -
14/11:00am 14.2 W 19 23 1017.8 - 0.0 - Partly cloudy 10 - - - -
14/10:30am 13.8 W 18 23 1018.0 - 0.0 - Partly cloudy 10 - - - -
14/10:01am 13.6 W 18 23 1018.2 - 0.0 - Partly cloudy 10 - - - -
14/10:00am 13.6 W 18 25 1018.2 - 0.0 - Partly cloudy 10 - - - -
14/09:30am 13.7 WNW 18 25 1018.3 - 0.0 - Partly cloudy 10 - - - -
14/09:16am 13.9 WNW 16 21 1018.3 - 0.0 - Partly cloudy 10 - - - -
14/09:00am 13.1 W 16 20 1018.5 - 0.0 - Mostly cloudy 10 - - - -
14/08:30am 13.1 W 18 22 1018.4 - 0.0 - Partly cloudy 10 - - - -
14/08:00am 12.7 W 19 24 1018.5 - 0.0 - Partly cloudy 10 - - - -
14/07:30am 12.2 W 17 23 1018.4 - 0.0 - Partly cloudy 10 - - - -
14/07:00am 11.8 W 16 20 1018.2 - 0.0 - Partly cloudy 10 - - - -
14/06:30am 11.6 W 14 19 1018.1 - 0.0 - Partly cloudy 10 - - - -
14/06:00am 11.4 WNW 14 19 1017.9 - 0.0 - Mostly clear 10 - - - -
14/05:30am 11.5 W 14 17 1018.2 - 0.0 - - 10 - - - -
14/05:00am 11.5 W 16 21 1018.3 - 0.0 - Partly cloudy 10 - - - -
14/04:30am 11.7 W 16 22 1018.4 - 0.0 - Partly cloudy 10 - - - -
14/04:00am 11.4 W 16 20 1018.5 - 0.0 - Partly cloudy 10 - - - -
14/03:30am 11.1 W 19 25 1018.6 - 0.0 - Partly cloudy 10 - - - -
14/03:00am 11.5 W 15 19 1019.0 - 0.0 - Partly cloudy 10 - - - -
14/02:30am 11.6 W 16 21 1019.2 - 0.0 - Partly cloudy 10 - - - -
14/02:00am 11.8 W 16 21 1019.6 - 0.0 - Partly cloudy 10 - - - -
14/01:30am 11.7 W 16 20 1019.9 - 0.0 - Partly cloudy 10 - - - -
14/01:00am 11.6 W 13 16 1020.2 - 0.0 - Partly cloudy 10 - - - -
14/12:30am 11.3 W 15 20 1020.3 - 0.0 - Partly cloudy 10 - - - -
14/12:00am 11.3 W 16 22 1020.5 - 0.0 - Cloudy 10 - - - -
 
Date/Time
EST
Temp

°C
Wind Pressure Rain
since 9am
mm
Weather Cloud Vis
km
Sea
Height
m
Swell
Dir
 
Speed
knots
Gust
knots
hPa Trend Height
m
Period
s
Dir
13/11:30pm 10.6 W 15 18 1020.6 - 0.0 - Partly cloudy 10 - - - -
13/11:00pm 11.2 W 17 21 1020.7 - 0.0 - Partly cloudy 10 - - - -
13/10:34pm 12.1 W 15 28 1020.8 - 0.0 - Partly cloudy 10 - - - -
13/10:30pm 12.1 W 14 18 1020.8 - 0.0 - Partly cloudy 10 - - - -
13/10:00pm 12.0 W 13 18 1021.0 - 0.0 - Cloudy 10 - - - -
13/09:30pm 11.8 WNW 11 15 1021.2 - 0.0 - Partly cloudy 10 - - - -
13/09:00pm 11.4 WNW 11 17 1021.2 - 0.0 - - 10 - - - -
13/08:30pm 11.8 W 11 14 1021.2 - 0.0 - Partly cloudy 10 - - - -
13/08:00pm 12.1 WNW 15 18 1021.3 - 0.0 - Partly cloudy 10 - - - -
13/07:30pm 12.1 W 14 16 1021.2 - 0.0 - Partly cloudy 10 - - - -
13/07:00pm 12.5 W 12 16 1021.2 - 0.0 - Partly cloudy 10 - - - -
13/06:30pm 12.3 W 13 17 1021.2 - 0.0 - Cloudy 10 - - - -
13/06:00pm 12.6 W 15 21 1021.2 - 0.0 - Cloudy 10 - - - -
13/05:30pm 12.6 W 14 17 1021.2 - 0.0 - Partly cloudy 10 - - - -
13/05:00pm 13.0 W 14 17 1021.2 - 0.0 - Cloudy 10 - - - -
13/04:30pm 13.1 W 15 19 1021.3 - 0.0 - Cloudy 10 - - - -
13/04:00pm 13.3 W 15 18 1021.3 - 0.0 - Cloudy 10 - - - -
13/03:30pm 13.4 W 14 18 1021.4 - 0.0 - Cloudy 10 - - - -
13/03:00pm 13.5 W 14 18 1021.5 - 0.0 - Cloudy 10 - - - -
13/02:30pm 13.8 W 14 18 1021.7 - 0.0 - Cloudy 10 - - - -
13/02:00pm 13.6 W 14 17 1021.8 - 0.0 - Cloudy 10 - - - -
13/01:30pm 13.2 W 14 19 1022.1 - 0.0 - Cloudy 10 - - - -
13/01:00pm 12.7 W 11 16 1022.3 - 0.0 - Partly cloudy 10 - - - -
13/12:30pm 13.3 WSW 11 15 1022.6 - 0.0 - Cloudy 10 - - - -
13/12:00pm 12.8 WSW 19 22 1023.1 - 0.0 - Mostly cloudy 10 - - - -
13/11:30am 13.5 W 14 18 1023.3 - 0.0 - Partly cloudy 10 - - - -
13/11:08am 12.7 W 12 16 1023.7 - 0.0 - Partly cloudy 10 - - - -
13/11:00am 12.2 W 15 20 1023.8 - 0.0 - Partly cloudy 10 - - - -
13/10:58am 12.0 W 16 21 1023.9 - 0.0 - Partly cloudy 9 - - - -

Other Formats:

Comma delimited format used in spreadsheet applications
http://www.bom.gov.au/fwo/IDT60701/IDT60701.94980.axf

JavaScript Object Notation format (JSON) in row-major order
http://www.bom.gov.au/fwo/IDT60701/IDT60701.94980.json